createdAt,value
2017-10-26T00:00:32.830Z,46.10
2017-10-26T00:03:01.855Z,54.30
2017-10-26T00:05:30.118Z,53.37
2017-10-26T00:07:58.378Z,42.17
2017-10-26T00:10:27.416Z,49.03
2017-10-26T00:12:55.681Z,52.17
2017-10-26T00:15:23.930Z,65.13
2017-10-26T00:17:52.953Z,49.60
2017-10-26T00:20:21.213Z,60.80
2017-10-26T00:22:49.460Z,55.00
2017-10-26T00:25:18.499Z,51.97
2017-10-26T00:27:46.752Z,46.40
2017-10-26T00:30:15.017Z,52.87
2017-10-26T00:32:44.043Z,49.50
2017-10-26T00:35:12.293Z,50.87
2017-10-26T00:37:40.550Z,51.43
2017-10-26T00:40:09.562Z,53.17
2017-10-26T00:42:37.827Z,56.67
2017-10-26T00:45:06.839Z,66.90
2017-10-26T00:47:35.094Z,58.50
2017-10-26T00:50:04.116Z,59.93
2017-10-26T00:52:32.371Z,44.83
2017-10-26T00:55:01.387Z,61.30
2017-10-26T00:57:29.652Z,54.03
2017-10-26T00:59:57.890Z,57.30
2017-10-26T01:02:26.142Z,74.23
2017-10-26T01:04:54.396Z,71.47
2017-10-26T01:07:22.654Z,69.37
2017-10-26T01:09:50.904Z,75.80
2017-10-26T01:12:19.932Z,77.80
2017-10-26T01:14:48.187Z,89.83
2017-10-26T01:17:16.439Z,81.03
2017-10-26T01:19:45.459Z,91.37
2017-10-26T01:22:14.483Z,80.43
2017-10-26T01:24:42.742Z,74.23
2017-10-26T01:27:11.002Z,69.60
2017-10-26T01:29:39.260Z,76.97
2017-10-26T01:32:07.504Z,78.07
2017-10-26T01:34:35.762Z,64.37
2017-10-26T01:37:04.020Z,64.07
2017-10-26T01:39:32.266Z,89.60
2017-10-26T01:42:01.278Z,78.03
2017-10-26T01:44:29.535Z,107.33
2017-10-26T01:46:58.587Z,111.70
2017-10-26T01:49:26.845Z,106.87
2017-10-26T01:51:55.082Z,85.87
2017-10-26T01:54:24.108Z,92.17
2017-10-26T01:56:52.352Z,94.70
2017-10-26T01:59:20.612Z,89.87
2017-10-26T02:01:49.648Z,101.97
2017-10-26T02:04:18.647Z,104.43
2017-10-26T02:06:46.902Z,98.17
2017-10-26T02:09:15.169Z,81.27
2017-10-26T02:11:44.185Z,83.63
2017-10-26T02:14:12.447Z,83.10
2017-10-26T02:16:40.697Z,100.90
2017-10-26T02:19:09.722Z,76.80
2017-10-26T02:21:37.983Z,67.30
2017-10-26T02:24:06.246Z,73.43
2017-10-26T02:26:35.265Z,69.90
2017-10-26T02:32:11.956Z,69.00
2017-10-26T02:34:40.218Z,62.23
2017-10-26T02:37:09.231Z,77.90
2017-10-26T02:39:37.492Z,104.97
2017-10-26T02:42:05.742Z,91.83
2017-10-26T02:44:34.767Z,84.70
2017-10-26T02:47:03.013Z,88.83
2017-10-26T02:49:32.040Z,77.70
2017-10-26T02:52:00.286Z,90.00
2017-10-26T02:54:29.310Z,80.83
2017-10-26T02:56:57.553Z,89.47
2017-10-26T02:59:26.575Z,117.10
2017-10-26T03:01:54.826Z,97.73
2017-10-26T03:04:23.866Z,79.00
2017-10-26T03:06:52.115Z,90.03
2017-10-26T03:09:20.366Z,90.80
2017-10-26T03:11:49.386Z,76.57
2017-10-26T03:14:17.622Z,76.93
2017-10-26T03:16:45.878Z,71.60
2017-10-26T03:19:14.122Z,82.67
2017-10-26T03:21:42.377Z,81.73
2017-10-26T03:24:10.624Z,64.83
2017-10-26T03:26:38.870Z,81.83
2017-10-26T03:29:07.115Z,71.03
2017-10-26T03:31:35.370Z,61.53
2017-10-26T03:34:04.387Z,66.67
2017-10-26T03:36:32.637Z,67.83
2017-10-26T03:39:01.647Z,57.87
2017-10-26T03:41:29.904Z,73.97
2017-10-26T03:43:58.915Z,94.10
2017-10-26T03:46:27.163Z,80.17
2017-10-26T03:48:56.187Z,73.53
2017-10-26T03:51:24.436Z,82.27
2017-10-26T03:53:53.458Z,65.47
2017-10-26T03:56:21.714Z,66.53
2017-10-26T03:58:50.725Z,57.70
2017-10-26T04:01:18.987Z,67.13
2017-10-26T04:03:47.991Z,60.37
2017-10-26T04:06:16.241Z,64.50
2017-10-26T04:08:45.258Z,87.57
2017-10-26T04:11:13.512Z,74.37
2017-10-26T04:13:42.528Z,79.03
2017-10-26T04:16:10.808Z,69.27
2017-10-26T04:18:39.045Z,70.43
2017-10-26T04:21:07.294Z,71.73
2017-10-26T04:23:35.559Z,86.50
2017-10-26T04:26:03.802Z,100.00
2017-10-26T04:28:32.062Z,88.53
2017-10-26T04:31:01.074Z,91.97
2017-10-26T04:33:29.325Z,91.00
2017-10-26T04:35:58.338Z,110.77
2017-10-26T04:38:26.595Z,99.17
2017-10-26T04:40:55.606Z,80.23
2017-10-26T04:43:23.861Z,108.73
2017-10-26T04:45:52.872Z,96.17
2017-10-26T04:48:21.133Z,94.70
2017-10-26T04:50:50.145Z,93.67
2017-10-26T04:53:18.399Z,79.47
2017-10-26T04:55:47.415Z,100.13
2017-10-26T04:58:15.674Z,120.00
2017-10-26T05:00:44.690Z,103.70
2017-10-26T05:03:12.941Z,76.20
2017-10-26T05:05:41.958Z,87.57
2017-10-26T05:08:10.215Z,90.33
2017-10-26T05:10:39.222Z,91.97
2017-10-26T05:13:07.479Z,109.27
2017-10-26T05:15:36.487Z,87.83
2017-10-26T05:18:04.756Z,74.93
2017-10-26T05:20:33.761Z,98.93
2017-10-26T05:23:02.026Z,106.23
2017-10-26T05:25:30.271Z,89.03
2017-10-26T05:27:58.547Z,76.97
2017-10-26T05:30:26.785Z,84.70
2017-10-26T05:32:55.027Z,95.93
2017-10-26T05:35:23.282Z,72.83
2017-10-26T05:37:52.298Z,94.33
2017-10-26T05:40:20.564Z,69.27
2017-10-26T05:42:49.574Z,75.53
2017-10-26T05:45:17.835Z,77.23
2017-10-26T05:47:46.084Z,158.97
2017-10-26T05:50:14.339Z,72.17
2017-10-26T05:52:42.585Z,88.83
2017-10-26T05:55:10.830Z,67.93
2017-10-26T05:57:39.834Z,72.20
2017-10-26T06:00:08.090Z,72.73
2017-10-26T06:02:36.326Z,70.97
2017-10-26T06:05:05.339Z,96.60
2017-10-26T06:07:33.582Z,105.73
2017-10-26T06:10:01.831Z,66.10
2017-10-26T06:12:30.083Z,120.60
2017-10-26T06:14:59.110Z,111.00
2017-10-26T06:17:27.354Z,56.57
2017-10-26T06:19:56.375Z,110.73
2017-10-26T06:22:24.615Z,83.60
2017-10-26T06:24:52.867Z,88.77
2017-10-26T06:27:21.111Z,66.97
2017-10-26T06:29:49.376Z,120.27
2017-10-26T06:32:17.618Z,86.87
2017-10-26T06:34:46.634Z,89.27
2017-10-26T06:37:14.885Z,88.83
2017-10-26T06:39:43.142Z,76.50
2017-10-26T06:42:11.395Z,49.90
2017-10-26T06:44:39.635Z,55.70
2017-10-26T06:47:07.886Z,47.07
2017-10-26T06:49:36.903Z,49.07
2017-10-26T06:52:05.151Z,46.30
2017-10-26T06:54:33.398Z,49.07
2017-10-26T06:57:01.654Z,49.37
2017-10-26T06:59:29.898Z,63.57
2017-10-26T07:01:58.913Z,54.53
2017-10-26T07:04:27.157Z,102.50
2017-10-26T07:06:56.183Z,73.80
2017-10-26T07:09:24.433Z,110.93
2017-10-26T07:11:53.455Z,85.97
2017-10-26T07:14:21.701Z,52.40
2017-10-26T07:16:50.728Z,51.23
2017-10-26T07:19:18.969Z,47.17
2017-10-26T07:21:47.994Z,51.70
2017-10-26T07:24:16.232Z,44.37
2017-10-26T07:26:45.263Z,39.70
2017-10-26T07:29:13.505Z,47.77
2017-10-26T07:31:42.564Z,43.87
2017-10-26T07:34:10.792Z,43.70
2017-10-26T07:36:39.055Z,39.67
2017-10-26T07:39:08.066Z,25.43
2017-10-26T07:41:36.317Z,18.07
2017-10-26T07:44:05.330Z,14.87
2017-10-26T07:46:33.590Z,12.60
2017-10-26T07:49:01.831Z,9.50
2017-10-26T07:51:30.070Z,11.90
2017-10-26T07:53:58.333Z,9.77
2017-10-26T07:56:26.569Z,10.47
2017-10-26T07:58:55.590Z,21.30
2017-10-26T08:01:23.838Z,19.70
2017-10-26T08:03:52.087Z,17.47
2017-10-26T08:06:20.325Z,17.67
2017-10-26T08:08:48.587Z,18.70
2017-10-26T08:11:16.828Z,16.97
2017-10-26T08:13:45.090Z,12.67
2017-10-26T08:16:13.337Z,13.53
2017-10-26T08:18:41.586Z,18.63
2017-10-26T08:21:10.603Z,15.97
2017-10-26T08:23:38.841Z,45.13
2017-10-26T08:26:07.854Z,63.57
2017-10-26T08:28:36.111Z,29.50
2017-10-26T08:31:05.132Z,49.23
2017-10-26T08:33:33.396Z,32.67
2017-10-26T08:36:01.640Z,31.30
2017-10-26T08:38:29.897Z,46.80
2017-10-26T08:40:58.150Z,31.30
2017-10-26T08:43:26.506Z,64.90
2017-10-26T08:45:54.762Z,21.60
2017-10-26T08:48:23.783Z,15.20
2017-10-26T08:50:52.040Z,19.37
2017-10-26T08:53:21.146Z,16.60
2017-10-26T08:55:49.404Z,19.17
2017-10-26T08:58:18.429Z,39.50
2017-10-26T09:00:46.686Z,27.70
2017-10-26T09:03:14.937Z,22.60
2017-10-26T09:05:43.970Z,18.97
2017-10-26T09:08:12.228Z,18.87
2017-10-26T09:10:40.496Z,26.50
2017-10-26T09:13:08.750Z,22.53
2017-10-26T09:15:37.010Z,27.70
2017-10-26T09:18:05.263Z,80.20
2017-10-26T09:20:34.294Z,59.93
2017-10-26T09:23:02.553Z,53.37
2017-10-26T09:25:30.826Z,19.77
2017-10-26T09:27:59.091Z,16.77
2017-10-26T09:30:28.123Z,17.17
2017-10-26T09:33:02.010Z,16.00
2017-10-26T09:35:30.283Z,16.17
2017-10-26T09:37:58.535Z,17.53
2017-10-26T09:40:27.571Z,17.90
2017-10-26T09:42:55.815Z,15.27
2017-10-26T09:45:24.075Z,13.10
2017-10-26T09:47:53.093Z,12.60
2017-10-26T09:50:21.362Z,14.40
2017-10-26T09:52:49.610Z,13.90
2017-10-26T09:55:17.867Z,11.57
2017-10-26T09:57:46.126Z,13.90
2017-10-26T10:00:14.384Z,11.23
2017-10-26T10:02:42.638Z,13.33
2017-10-26T10:05:10.893Z,14.00
2017-10-26T10:07:39.906Z,12.87
2017-10-26T10:10:08.166Z,14.47
2017-10-26T10:12:37.181Z,15.20
2017-10-26T10:15:05.449Z,16.67
2017-10-26T10:17:33.702Z,16.53
2017-10-26T10:20:02.732Z,16.63
2017-10-26T10:22:30.983Z,16.33
2017-10-26T10:24:59.998Z,21.93
2017-10-26T10:27:28.257Z,18.67
2017-10-26T10:29:57.263Z,19.90
2017-10-26T10:32:25.522Z,20.17
2017-10-26T10:34:54.537Z,19.17
2017-10-26T10:37:22.797Z,16.03
2017-10-26T10:39:51.813Z,16.50
2017-10-26T10:42:20.071Z,13.03
2017-10-26T10:44:48.321Z,12.80
2017-10-26T10:47:16.585Z,18.20
2017-10-26T10:49:44.834Z,19.33
2017-10-26T10:52:13.089Z,16.10
2017-10-26T10:54:41.339Z,17.27
2017-10-26T10:57:10.367Z,16.23
2017-10-26T10:59:44.217Z,15.10
2017-10-26T11:02:12.479Z,16.50
2017-10-26T11:04:40.722Z,20.00
2017-10-26T11:07:08.992Z,17.57
2017-10-26T11:09:37.234Z,17.47
2017-10-26T11:12:06.256Z,18.50
2017-10-26T11:14:34.503Z,19.50
2017-10-26T11:17:03.527Z,18.77
2017-10-26T11:19:31.787Z,24.00
2017-10-26T11:22:00.038Z,20.17
2017-10-26T11:24:29.058Z,17.70
2017-10-26T11:26:57.321Z,19.47
2017-10-26T11:29:26.338Z,16.43
2017-10-26T11:31:54.607Z,18.60
2017-10-26T11:34:22.859Z,24.67
2017-10-26T11:36:51.936Z,259.13
2017-10-26T11:39:20.188Z,71.77
2017-10-26T11:41:48.447Z,114.37
2017-10-26T11:44:16.706Z,31.70
2017-10-26T11:46:44.965Z,23.50
2017-10-26T11:49:13.985Z,13.33
2017-10-26T11:51:42.239Z,16.67
2017-10-26T11:54:10.494Z,15.77
2017-10-26T11:56:39.514Z,14.77
2017-10-26T11:59:07.765Z,13.87
2017-10-26T12:01:36.782Z,12.80
2017-10-26T12:04:05.042Z,12.60
2017-10-26T12:06:34.052Z,9.03
2017-10-26T12:09:02.302Z,12.80
2017-10-26T12:11:31.324Z,9.80
2017-10-26T12:13:59.574Z,9.80
2017-10-26T12:16:28.588Z,10.10
2017-10-26T12:18:56.847Z,10.53
2017-10-26T12:21:25.873Z,13.13
2017-10-26T12:23:54.126Z,7.87
2017-10-26T12:26:23.128Z,7.20
2017-10-26T12:28:51.378Z,6.90
2017-10-26T12:31:20.386Z,6.73
2017-10-26T12:33:48.643Z,8.23
2017-10-26T12:36:17.649Z,8.50
2017-10-26T12:38:46.666Z,7.27
2017-10-26T12:41:14.908Z,7.80
2017-10-26T12:43:43.949Z,7.17
2017-10-26T12:46:12.193Z,4.63
2017-10-26T12:48:40.441Z,2.67
2017-10-26T12:51:08.714Z,2.80
2017-10-26T12:53:36.937Z,3.57
2017-10-26T12:56:05.190Z,4.47
2017-10-26T12:58:34.208Z,3.23
2017-10-26T13:01:02.455Z,2.90
2017-10-26T13:03:31.462Z,6.00
2017-10-26T13:05:59.721Z,3.50
2017-10-26T13:08:28.719Z,3.17
2017-10-26T13:10:57.731Z,3.23
2017-10-26T13:13:25.976Z,4.17
2017-10-26T13:15:54.990Z,2.60
2017-10-26T13:18:23.233Z,2.50
2017-10-26T13:20:51.478Z,2.07
2017-10-26T13:23:19.724Z,4.40
2017-10-26T13:25:47.979Z,4.70
2017-10-26T13:28:16.990Z,2.47
2017-10-26T13:30:45.243Z,2.47
2017-10-26T13:33:14.245Z,2.70
2017-10-26T13:35:42.494Z,1.93
2017-10-26T13:38:10.737Z,2.67
2017-10-26T13:40:38.992Z,3.00
2017-10-26T13:43:07.234Z,2.53
2017-10-26T13:45:36.246Z,3.20
2017-10-26T13:48:04.481Z,2.83
2017-10-26T13:50:32.741Z,3.47
2017-10-26T13:53:00.983Z,7.97
2017-10-26T13:55:29.255Z,6.47
2017-10-26T13:57:57.508Z,6.30
2017-10-26T14:00:26.515Z,8.70
2017-10-26T14:02:54.776Z,6.40
2017-10-26T14:05:23.792Z,6.73
2017-10-26T14:07:52.045Z,9.27
2017-10-26T14:10:21.058Z,4.97
2017-10-26T14:12:49.319Z,7.87
2017-10-26T14:15:17.562Z,5.90
2017-10-26T14:17:45.814Z,11.17
2017-10-26T14:20:14.059Z,5.37
2017-10-26T14:22:42.485Z,3.33
2017-10-26T14:25:10.733Z,3.20
2017-10-26T14:27:38.979Z,3.97
2017-10-26T14:30:07.231Z,3.03
2017-10-26T14:32:36.233Z,3.20
2017-10-26T14:35:05.251Z,2.63
2017-10-26T14:37:33.491Z,2.63
2017-10-26T14:40:02.508Z,2.27
2017-10-26T14:42:30.751Z,3.60
2017-10-26T14:44:58.998Z,8.40
2017-10-26T14:47:27.241Z,3.07
2017-10-26T14:49:55.491Z,2.30
2017-10-26T14:52:24.494Z,3.30
2017-10-26T14:54:53.513Z,3.17
2017-10-26T14:57:21.766Z,2.83
2017-10-26T14:59:50.019Z,3.17
2017-10-26T15:02:18.405Z,3.10
2017-10-26T15:04:47.434Z,3.07
2017-10-26T15:07:15.675Z,5.27
2017-10-26T15:09:44.682Z,3.00
2017-10-26T15:12:12.921Z,3.07
2017-10-26T15:14:41.174Z,3.90
2017-10-26T15:17:09.417Z,4.40
2017-10-26T15:19:37.662Z,3.00
2017-10-26T15:22:06.675Z,2.93
2017-10-26T15:24:34.922Z,3.27
2017-10-26T15:27:03.166Z,2.73
2017-10-26T15:29:31.418Z,2.47
2017-10-26T15:31:59.669Z,2.30
2017-10-26T15:34:28.677Z,1.97
2017-10-26T15:36:56.926Z,2.27
2017-10-26T15:39:25.175Z,2.10
2017-10-26T15:41:53.419Z,3.43
2017-10-26T15:44:21.668Z,4.07
2017-10-26T15:46:49.914Z,3.20
2017-10-26T15:49:18.166Z,2.83
2017-10-26T15:51:46.414Z,3.67
2017-10-26T15:54:14.666Z,3.37
2017-10-26T15:56:42.917Z,2.47
2017-10-26T15:59:11.172Z,3.47
2017-10-26T16:01:39.416Z,4.90
2017-10-26T16:04:07.674Z,5.40
2017-10-26T16:06:36.681Z,4.13
2017-10-26T16:09:04.937Z,3.70
2017-10-26T16:11:33.941Z,3.43
2017-10-26T16:14:02.191Z,3.43
2017-10-26T16:16:31.202Z,3.50
2017-10-26T16:18:59.449Z,4.20
2017-10-26T16:21:28.465Z,3.70
2017-10-26T16:23:56.955Z,3.83
2017-10-26T16:26:25.186Z,3.17
2017-10-26T16:28:53.437Z,4.37
2017-10-26T16:31:21.687Z,3.97
2017-10-26T16:33:49.935Z,5.23
2017-10-26T16:36:18.942Z,6.20
2017-10-26T16:38:47.190Z,5.87
2017-10-26T16:41:15.442Z,4.60
2017-10-26T16:43:43.697Z,6.33
2017-10-26T16:46:11.937Z,6.53
2017-10-26T16:48:40.197Z,5.57
2017-10-26T16:51:09.206Z,9.13
2017-10-26T16:53:37.457Z,6.73
2017-10-26T16:56:05.706Z,6.70
2017-10-26T16:58:34.734Z,7.97
2017-10-26T17:01:03.747Z,7.60
2017-10-26T17:03:32.779Z,8.07
2017-10-26T17:06:01.017Z,7.00
2017-10-26T17:08:29.296Z,8.67
2017-10-26T17:10:57.534Z,7.87
2017-10-26T17:13:25.775Z,7.20
2017-10-26T17:15:54.034Z,8.60
2017-10-26T17:18:22.286Z,7.30
2017-10-26T17:20:51.308Z,8.40
2017-10-26T17:23:19.546Z,7.90
2017-10-26T17:25:48.572Z,9.47
2017-10-26T17:28:16.819Z,10.67
2017-10-26T17:30:45.835Z,9.37
2017-10-26T17:33:14.083Z,8.00
2017-10-26T17:35:43.102Z,7.90
2017-10-26T17:38:11.356Z,10.83
2017-10-26T17:40:40.370Z,6.87
2017-10-26T17:43:08.622Z,9.00
2017-10-26T17:45:37.636Z,6.83
2017-10-26T17:48:05.881Z,8.77
2017-10-26T17:50:34.901Z,7.83
2017-10-26T17:53:03.145Z,8.87
2017-10-26T17:55:31.399Z,7.97
2017-10-26T17:57:59.647Z,8.13
2017-10-26T18:00:27.894Z,8.40
2017-10-26T18:02:56.906Z,8.63
2017-10-26T18:05:25.161Z,8.10
2017-10-26T18:07:54.173Z,10.00
2017-10-26T18:10:22.434Z,10.90
2017-10-26T18:12:50.681Z,13.03
2017-10-26T18:15:18.947Z,13.67
2017-10-26T18:17:47.204Z,8.90
2017-10-26T18:20:15.447Z,8.47
2017-10-26T18:22:43.694Z,7.73
2017-10-26T18:25:12.713Z,8.97
2017-10-26T18:27:40.954Z,9.10
2017-10-26T18:30:09.214Z,9.23
2017-10-26T18:32:37.468Z,9.03
2017-10-26T18:35:05.733Z,9.60
2017-10-26T18:37:33.978Z,10.20
2017-10-26T18:40:02.239Z,9.20
2017-10-26T18:42:30.483Z,10.13
2017-10-26T18:44:58.742Z,11.40
2017-10-26T18:47:26.995Z,10.37
2017-10-26T18:49:55.249Z,8.73
2017-10-26T18:52:24.276Z,9.03
2017-10-26T18:54:52.521Z,8.80
2017-10-26T18:57:21.553Z,11.67
2017-10-26T18:59:49.804Z,8.77
2017-10-26T19:02:18.054Z,14.13
2017-10-26T19:04:47.093Z,11.30
2017-10-26T19:07:15.331Z,10.83
2017-10-26T19:09:44.347Z,13.17
2017-10-26T19:12:12.604Z,10.20
2017-10-26T19:14:41.620Z,10.23
2017-10-26T19:17:09.864Z,10.40
2017-10-26T19:19:38.876Z,10.23
2017-10-26T19:22:07.126Z,12.00
2017-10-26T19:24:36.142Z,9.43
2017-10-26T19:27:04.395Z,10.93
2017-10-26T19:29:33.406Z,9.47
2017-10-26T19:32:01.653Z,9.50
2017-10-26T19:34:29.913Z,9.50
2017-10-26T19:36:58.174Z,11.60
2017-10-26T19:39:26.428Z,9.07
2017-10-26T19:41:54.674Z,10.10
2017-10-26T19:44:25.431Z,9.97
2017-10-26T19:46:53.689Z,12.30
2017-10-26T19:49:22.709Z,15.17
2017-10-26T19:51:50.963Z,11.63
2017-10-26T19:54:19.226Z,15.20
2017-10-26T19:56:48.261Z,12.53
2017-10-26T19:59:16.506Z,11.13
2017-10-26T20:01:44.766Z,13.03
2017-10-26T20:04:13.788Z,12.87
2017-10-26T20:06:42.046Z,14.67
2017-10-26T20:09:11.063Z,16.17
2017-10-26T20:11:39.321Z,11.80
2017-10-26T20:14:07.570Z,15.70
2017-10-26T20:16:35.826Z,11.80
2017-10-26T20:19:04.084Z,15.13
2017-10-26T20:21:32.343Z,12.37
2017-10-26T20:24:00.621Z,12.70
2017-10-26T20:26:28.903Z,14.10
2017-10-26T20:28:57.191Z,12.30
2017-10-26T20:31:25.477Z,15.00
2017-10-26T20:33:53.727Z,15.47
2017-10-26T20:36:36.858Z,13.27
2017-10-26T20:39:05.122Z,14.90
2017-10-26T20:41:33.411Z,14.33
2017-10-26T20:44:01.683Z,12.00
2017-10-26T20:46:30.002Z,12.00
2017-10-26T20:48:58.304Z,11.57
2017-10-26T20:51:32.655Z,12.20
2017-10-26T20:54:06.183Z,11.23
2017-10-26T20:56:40.245Z,13.23
2017-10-26T20:59:14.010Z,13.90
2017-10-26T21:01:47.791Z,12.63
2017-10-26T21:04:21.498Z,15.53
2017-10-26T21:06:49.760Z,13.57
2017-10-26T21:09:23.626Z,12.10
2017-10-26T21:11:57.391Z,15.97
2017-10-26T21:14:28.486Z,12.67
2017-10-26T21:16:56.754Z,12.80
2017-10-26T21:19:25.766Z,11.53
2017-10-26T21:21:54.047Z,12.80
2017-10-26T21:24:22.303Z,15.73
2017-10-26T21:26:50.559Z,13.80
2017-10-26T21:29:19.585Z,12.43
2017-10-26T21:31:47.837Z,13.57
2017-10-26T21:34:16.099Z,14.43
2017-10-26T21:36:45.122Z,13.33
2017-10-26T21:39:13.366Z,16.20
2017-10-26T21:41:42.390Z,19.80
2017-10-26T21:44:10.648Z,14.53
2017-10-26T21:46:38.905Z,16.70
2017-10-26T21:49:07.921Z,14.03
2017-10-26T21:51:36.190Z,18.43
2017-10-26T21:54:05.202Z,16.03
2017-10-26T21:56:32.753Z,17.67
2017-10-26T21:59:01.008Z,18.03
2017-10-26T22:01:30.030Z,14.73
2017-10-26T22:03:58.306Z,16.23
2017-10-26T22:06:26.558Z,15.47
2017-10-26T22:08:55.580Z,18.13
2017-10-26T22:11:23.838Z,14.07
2017-10-26T22:13:52.091Z,17.80
2017-10-26T22:16:21.118Z,15.17
2017-10-26T22:18:49.370Z,13.50
2017-10-26T22:21:18.388Z,19.13
2017-10-26T22:23:46.662Z,17.07
2017-10-26T22:26:14.927Z,18.53
2017-10-26T22:28:43.180Z,15.83
2017-10-26T22:31:12.197Z,17.20
2017-10-26T22:33:40.450Z,17.67
2017-10-26T22:36:09.479Z,15.27
2017-10-26T22:38:37.733Z,14.90
2017-10-26T22:41:06.712Z,18.40
2017-10-26T22:43:35.722Z,16.53
2017-10-26T22:46:03.982Z,20.90
2017-10-26T22:48:33.010Z,16.53
2017-10-26T22:51:01.274Z,21.03
2017-10-26T22:53:29.525Z,20.80
2017-10-26T22:55:58.547Z,19.90
2017-10-26T22:58:26.804Z,18.57
2017-10-26T23:00:55.823Z,24.90
2017-10-26T23:03:24.088Z,21.50
2017-10-26T23:05:52.339Z,21.10
2017-10-26T23:08:21.355Z,23.43
2017-10-26T23:10:49.615Z,21.00
2017-10-26T23:13:18.643Z,23.67
2017-10-26T23:15:46.904Z,26.03
2017-10-26T23:18:15.158Z,23.17
2017-10-26T23:20:44.187Z,25.27
2017-10-26T23:23:12.431Z,25.70
2017-10-26T23:25:41.450Z,26.33
2017-10-26T23:28:09.707Z,29.17
2017-10-26T23:30:38.722Z,24.20
2017-10-26T23:33:06.992Z,24.43
2017-10-26T23:35:35.247Z,24.80
2017-10-26T23:38:04.266Z,30.00
2017-10-26T23:40:32.517Z,32.33
2017-10-26T23:43:00.779Z,28.23
2017-10-26T23:45:29.807Z,29.10
2017-10-26T23:47:58.063Z,26.90
2017-10-26T23:50:26.317Z,35.77
2017-10-26T23:52:54.574Z,29.00
2017-10-26T23:55:22.828Z,33.80
2017-10-26T23:57:51.096Z,35.17
